Time;durP1;ratioP1;P1;durP2;ratioP2;P2;SDS_P1;SDS_P2;PMS_P1;PMS_P2;Temp;Humidity;BMP_temperature;BMP_pressure;BME280_temperature;BME280_humidity;BME280_pressure;Samples;Min_cycle;Max_cycle;Signal;HPM_P1;HPM_P2
2022/06/22 00:01:41;;;;;;;11.93;8.57;;;;;;;22.81;74.91;94518.38;5112794;28;20929;-78
2022/06/22 00:04:17;;;;;;;8.93;8.13;;;;;;;22.81;75.00;94515.72;5112943;28;20451;-78
2022/06/22 00:06:51;;;;;;;11.87;9.20;;;;;;;22.75;75.17;94516.53;5093643;28;21000;-78
2022/06/22 00:09:28;;;;;;;13.10;8.80;;;;;;;22.70;75.29;94521.72;5112760;28;20513;-78
2022/06/22 00:11:56;;;;;;;10.17;8.97;;;;;;;22.65;75.46;94516.19;5112709;28;20446;-78
2022/06/22 00:14:29;;;;;;;10.97;9.03;;;;;;;22.65;75.53;94526.91;5112491;28;20578;-79
2022/06/22 00:16:57;;;;;;;15.87;9.10;;;;;;;22.62;75.37;94513.94;5112672;28;20458;-78
2022/06/22 00:19:32;;;;;;;9.27;7.60;;;;;;;22.61;75.68;94520.34;5112567;28;21127;-78
2022/06/22 00:22:00;;;;;;;16.00;8.97;;;;;;;22.59;75.68;94525.06;5112486;28;20453;-78
2022/06/22 00:24:41;;;;;;;15.13;10.27;;;;;;;22.52;76.06;94527.75;5112225;28;20999;-78
2022/06/22 00:27:18;;;;;;;12.33;9.57;;;;;;;22.55;75.87;94523.84;5115589;28;20438;-78
2022/06/22 00:29:47;;;;;;;9.77;8.07;;;;;;;22.56;75.99;94536.19;5116372;28;20450;-78
2022/06/22 00:32:17;;;;;;;12.33;10.33;;;;;;;22.53;76.02;94528.56;5116529;28;20451;-78
2022/06/22 00:34:44;;;;;;;10.43;9.43;;;;;;;22.50;75.92;94521.81;5116377;28;20490;-79
2022/06/22 00:37:17;;;;;;;13.00;10.07;;;;;;;22.46;76.31;94519.75;5115986;28;20487;-78
2022/06/22 00:39:47;;;;;;;9.10;8.30;;;;;;;22.38;76.63;94520.00;5115808;28;20929;-78
2022/06/22 00:42:31;;;;;;;12.60;9.63;;;;;;;22.39;76.67;94518.97;5116183;28;20471;-79
2022/06/22 00:45:03;;;;;;;13.67;9.77;;;;;;;22.35;76.84;94517.75;5116153;28;20450;-79
2022/06/22 00:47:33;;;;;;;9.33;8.40;;;;;;;22.37;77.11;94523.72;5116071;28;20475;-79
2022/06/22 00:50:05;;;;;;;11.20;9.50;;;;;;;22.33;77.09;94522.50;5115708;28;20432;-79
2022/06/22 00:52:37;;;;;;;12.90;9.83;;;;;;;22.16;77.63;94524.81;5115875;28;20451;-78
2022/06/22 00:55:16;;;;;;;11.10;9.80;;;;;;;22.13;77.73;94519.88;5115782;28;20836;-78
2022/06/22 00:57:50;;;;;;;12.70;9.97;;;;;;;22.17;77.60;94529.94;5115993;28;20444;-78
2022/06/22 01:00:20;;;;;;;13.73;10.77;;;;;;;22.17;77.65;94529.94;5115725;28;20443;-78
2022/06/22 01:02:51;;;;;;;16.67;11.03;;;;;;;22.16;77.81;94527.47;5114537;28;20448;-78
2022/06/22 01:05:25;;;;;;;11.57;10.30;;;;;;;22.09;77.94;94522.16;5115452;28;20446;-78
2022/06/22 01:07:55;;;;;;;15.60;9.40;;;;;;;22.10;78.16;94520.31;5115950;28;20543;-78
2022/06/22 01:10:32;;;;;;;12.27;9.63;;;;;;;22.08;78.08;94517.84;5079810;28;20443;-78
2022/06/22 01:13:08;;;;;;;15.73;10.07;;;;;;;22.04;78.15;94521.97;5115744;28;20518;-78
2022/06/22 01:15:38;;;;;;;14.33;10.80;;;;;;;22.05;78.41;94518.28;5115260;28;20490;-79
2022/06/22 01:18:09;;;;;;;14.33;10.17;;;;;;;22.05;78.55;94507.59;5115303;28;20969;-78
2022/06/22 01:20:52;;;;;;;11.53;10.23;;;;;;;21.99;78.59;94516.41;5080470;28;20461;-78
2022/06/22 01:23:50;;;;;;;11.40;10.23;;;;;;;21.96;78.83;94498.91;5114930;28;20444;-78
2022/06/22 01:26:47;;;;;;;11.70;9.37;;;;;;;21.98;78.81;94508.59;5115127;28;20443;-78
2022/06/22 01:29:17;;;;;;;11.27;9.80;;;;;;;21.99;78.76;94512.91;5115487;28;20443;-78
2022/06/22 01:31:52;;;;;;;12.33;10.60;;;;;;;22.00;78.70;94512.72;5079085;28;20438;-78
2022/06/22 01:34:20;;;;;;;10.80;9.30;;;;;;;22.04;78.89;94505.94;5114955;28;21019;-78
2022/06/22 01:36:48;;;;;;;12.57;10.30;;;;;;;22.05;78.84;94512.94;5115219;28;20439;-78
2022/06/22 01:39:15;;;;;;;13.87;10.87;;;;;;;22.01;79.00;94501.00;5114589;28;20443;-78
2022/06/22 01:41:48;;;;;;;14.80;10.50;;;;;;;22.04;78.89;94511.28;5114874;28;20486;-78
2022/06/22 01:44:24;;;;;;;11.63;10.33;;;;;;;22.00;79.08;94499.34;5114769;28;20447;-78
2022/06/22 01:47:16;;;;;;;12.27;10.37;;;;;;;21.96;79.13;94504.25;5114731;28;21117;-79
2022/06/22 01:49:49;;;;;;;13.37;10.80;;;;;;;21.99;79.14;94497.72;5114690;28;20458;-78
2022/06/22 01:52:27;;;;;;;13.03;11.77;;;;;;;21.97;79.12;94499.75;5114706;28;20436;-78
2022/06/22 01:55:01;;;;;;;14.33;10.23;;;;;;;21.96;79.37;94498.91;5114683;28;20573;-78
2022/06/22 01:57:35;;;;;;;14.60;11.03;;;;;;;21.95;79.63;94485.78;5114395;28;20448;-78
2022/06/22 02:00:10;;;;;;;11.50;10.40;;;;;;;21.96;79.69;94498.09;5114546;28;20443;-78
2022/06/22 02:02:45;;;;;;;12.30;10.53;;;;;;;21.94;79.45;94489.47;5095877;28;20436;-78
2022/06/22 02:05:18;;;;;;;12.27;10.30;;;;;;;21.93;79.85;94494.00;5115133;28;20461;-78
2022/06/22 02:07:51;;;;;;;20.67;10.60;;;;;;;21.92;79.65;94488.88;5115581;28;20490;-78
2022/06/22 02:10:40;;;;;;;13.80;11.33;;;;;;;21.91;79.89;94479.22;5115039;28;20930;-79
2022/06/22 02:13:19;;;;;;;14.80;10.60;;;;;;;21.90;80.13;94490.94;5114329;28;20443;-78
2022/06/22 02:15:54;;;;;;;18.10;11.80;;;;;;;21.90;79.82;94504.28;5048793;28;20482;-78
2022/06/22 02:18:37;;;;;;;14.43;11.33;;;;;;;21.90;79.94;94493.59;5114272;28;20956;-78
2022/06/22 02:21:20;;;;;;;17.60;11.80;;;;;;;21.90;79.98;94488.25;5114247;28;20451;-78
2022/06/22 02:23:51;;;;;;;21.90;11.80;;;;;;;21.88;79.98;94495.66;5114498;28;20443;-79
2022/06/22 02:26:23;;;;;;;13.50;10.70;;;;;;;21.89;80.17;94492.78;5113927;28;20458;-78
2022/06/22 02:28:51;;;;;;;13.60;11.47;;;;;;;21.88;79.85;94493.00;5114077;28;20447;-78
2022/06/22 02:31:22;;;;;;;15.73;11.10;;;;;;;21.85;79.92;94482.72;5114328;28;20813;-78
2022/06/22 02:33:52;;;;;;;13.20;11.83;;;;;;;21.81;80.18;94489.50;5114226;28;20442;-78
2022/06/22 02:36:21;;;;;;;15.83;12.30;;;;;;;21.77;80.82;94480.28;5113902;28;20439;-78
2022/06/22 02:38:50;;;;;;;12.57;11.20;;;;;;;21.76;80.72;94481.31;5113819;28;20454;-78
2022/06/22 02:46:49;;;;;;;13.23;11.83;;;;;;;21.64;81.09;94481.94;5113878;28;20839;-78
2022/06/22 02:49:24;;;;;;;15.67;11.63;;;;;;;21.61;81.63;94478.84;5113409;28;20929;-78
2022/06/22 02:51:53;;;;;;;12.70;11.60;;;;;;;21.60;81.49;94490.56;5113944;28;20514;-78
2022/06/22 02:54:27;;;;;;;13.70;11.77;;;;;;;21.63;81.59;94493.66;5113739;28;20479;-78
2022/06/22 02:57:06;;;;;;;18.20;12.80;;;;;;;21.63;81.75;94485.63;5113447;28;20449;-78
2022/06/22 02:59:34;;;;;;;12.43;11.13;;;;;;;21.69;81.58;94491.19;5113243;28;20450;-79
2022/06/22 03:02:04;;;;;;;11.87;10.67;;;;;;;21.71;81.44;94494.47;5113552;28;20431;-78
2022/06/22 03:04:32;;;;;;;19.33;11.37;;;;;;;21.71;81.34;94489.13;5113325;28;20478;-78
2022/06/22 03:07:00;;;;;;;19.93;12.00;;;;;;;21.73;81.11;94492.41;5113327;28;20447;-78
2022/06/22 03:09:28;;;;;;;14.10;11.90;;;;;;;21.74;81.00;94494.06;5113606;28;20807;-78
2022/06/22 03:11:59;;;;;;;18.17;11.80;;;;;;;21.76;80.99;94500.00;5113352;28;20447;-78
2022/06/22 03:14:30;;;;;;;17.53;14.00;;;;;;;21.77;80.93;94504.31;5112944;28;20487;-78
2022/06/22 03:17:01;;;;;;;16.10;13.40;;;;;;;21.78;81.09;94504.13;5113474;28;20447;-78
2022/06/22 03:19:37;;;;;;;14.97;12.87;;;;;;;21.82;80.85;94500.00;5113369;28;20451;-78
2022/06/22 03:22:04;;;;;;;17.73;12.37;;;;;;;21.76;81.00;94508.03;5113323;28;20438;-79
2022/06/22 03:24:43;;;;;;;15.50;12.40;;;;;;;21.82;81.54;94496.50;5113320;28;20431;-79
2022/06/22 03:27:18;;;;;;;17.17;11.80;;;;;;;21.83;80.98;94503.47;5077391;28;20454;-78
2022/06/22 03:29:50;;;;;;;17.23;11.80;;;;;;;21.80;81.37;94498.56;5113280;28;20455;-78
2022/06/22 03:32:25;;;;;;;19.87;13.53;;;;;;;21.84;81.56;94500.59;5113190;28;20933;-79
2022/06/22 03:35:02;;;;;;;13.87;12.50;;;;;;;21.92;81.51;94492.34;5113678;28;20871;-79
2022/06/22 03:37:34;;;;;;;14.20;12.70;;;;;;;22.08;81.02;94488.44;5114574;28;20471;-78
2022/06/22 03:40:06;;;;;;;16.20;11.83;;;;;;;22.24;80.45;94489.81;5078521;28;20461;-79
2022/06/22 03:42:38;;;;;;;14.27;12.87;;;;;;;22.39;79.37;94482.38;5112188;28;20870;-79
2022/06/22 03:45:11;;;;;;;18.73;12.43;;;;;;;22.54;78.75;94490.09;5114416;28;20501;-78
2022/06/22 03:47:42;;;;;;;14.53;12.97;;;;;;;22.71;78.16;94496.59;5114621;28;20431;-79
2022/06/22 03:50:18;;;;;;;19.00;12.83;;;;;;;22.90;77.34;94500.25;5113693;28;20503;-79
2022/06/22 03:52:52;;;;;;;14.57;12.70;;;;;;;23.11;76.82;94507.09;5114008;28;20431;-79
2022/06/22 03:55:23;;;;;;;13.50;11.47;;;;;;;23.22;75.57;94509.09;5113904;28;20843;-78
2022/06/22 03:57:53;;;;;;;13.50;12.17;;;;;;;23.25;75.33;94507.84;5114008;28;20443;-79
2022/06/22 04:00:21;;;;;;;13.73;12.30;;;;;;;23.22;75.03;94503.72;5113817;28;20439;-79
2022/06/22 04:02:49;;;;;;;17.90;12.90;;;;;;;23.14;75.43;94504.81;5082113;28;20447;-78
2022/06/22 04:05:20;;;;;;;19.73;13.00;;;;;;;23.05;75.80;94513.31;5117475;28;20454;-79
2022/06/22 04:07:48;;;;;;;17.20;12.00;;;;;;;22.98;76.14;94517.91;5118437;28;20443;-79
2022/06/22 04:10:32;;;;;;;15.23;12.97;;;;;;;22.93;76.50;94520.41;5117681;28;20446;-78
2022/06/22 04:13:00;;;;;;;17.13;12.57;;;;;;;22.95;77.06;94524.50;5118045;28;20443;-78
2022/06/22 04:15:33;;;;;;;13.90;12.50;;;;;;;23.14;76.96;94528.91;5098841;28;21012;-79
2022/06/22 04:18:03;;;;;;;14.53;13.03;;;;;;;23.43;76.61;94532.81;5117718;28;20439;-79
2022/06/22 04:20:51;;;;;;;18.37;12.73;;;;;;;23.80;75.63;94519.56;5116579;28;20446;-79
2022/06/22 04:23:21;;;;;;;14.13;12.80;;;;;;;24.21;73.80;94523.47;5097469;28;20953;-79
2022/06/22 04:25:49;;;;;;;16.70;11.83;;;;;;;24.50;72.15;94505.84;5116671;28;20938;-79
2022/06/22 04:28:18;;;;;;;14.37;12.20;;;;;;;24.80;70.93;94508.53;5116292;28;20458;-78
2022/06/22 04:30:49;;;;;;;19.00;12.07;;;;;;;25.08;70.08;94508.78;5116174;28;20440;-78
2022/06/22 04:33:21;;;;;;;20.97;11.57;;;;;;;25.37;69.04;94511.69;5116304;28;20443;-79
2022/06/22 04:35:53;;;;;;;20.40;12.30;;;;;;;25.69;68.19;94517.59;5116032;28;20478;-79
2022/06/22 04:38:26;;;;;;;14.07;12.60;;;;;;;25.95;67.10;94517.13;5116588;28;20461;-79
2022/06/22 04:41:00;;;;;;;14.50;11.00;;;;;;;26.29;65.95;94520.84;5116081;28;21033;-79
2022/06/22 04:43:28;;;;;;;13.80;11.70;;;;;;;26.64;64.82;94520.00;5116075;28;20439;-79
2022/06/22 04:45:56;;;;;;;13.13;11.80;;;;;;;26.93;63.97;94527.06;5116397;28;20444;-79
2022/06/22 04:48:28;;;;;;;15.10;12.20;;;;;;;27.28;62.77;94531.50;5080401;28;20452;-79
2022/06/22 04:50:59;;;;;;;16.17;11.90;;;;;;;27.53;61.56;94520.34;5116296;28;20501;-79
2022/06/22 04:53:30;;;;;;;24.37;13.13;;;;;;;27.70;60.46;94538.19;5115940;28;20444;-79
2022/06/22 04:56:00;;;;;;;12.83;11.53;;;;;;;27.93;60.34;94533.69;5115740;28;20521;-78
2022/06/22 04:58:36;;;;;;;13.43;12.13;;;;;;;28.16;60.11;94538.91;5115849;28;20450;-79
2022/06/22 05:01:05;;;;;;;13.63;11.50;;;;;;;28.37;58.69;94527.38;5115894;28;20471;-79
2022/06/22 05:03:34;;;;;;;15.00;11.90;;;;;;;28.58;58.70;94549.22;5115782;28;20435;-79
2022/06/22 05:06:09;;;;;;;14.17;11.93;;;;;;;28.73;58.78;94535.13;5115624;28;20439;-79
2022/06/22 05:08:42;;;;;;;14.87;11.63;;;;;;;28.88;57.88;94538.84;5115601;28;21005;-78
2022/06/22 05:11:16;;;;;;;13.07;11.87;;;;;;;29.13;56.95;94535.59;5115403;28;20450;-79
2022/06/22 05:13:46;;;;;;;14.10;12.73;;;;;;;29.37;57.69;94552.34;5115471;28;20451;-79
2022/06/22 05:16:16;;;;;;;15.67;12.70;;;;;;;29.64;56.10;94554.25;5115717;28;20479;-79
2022/06/22 05:18:44;;;;;;;13.47;12.07;;;;;;;29.83;55.26;94555.53;5115390;28;20812;-79
2022/06/22 05:21:18;;;;;;;28.70;13.40;;;;;;;29.96;55.31;94557.78;5115281;28;20443;-79
2022/06/22 05:23:50;;;;;;;77.17;17.60;;;;;;;30.02;54.65;94548.63;5115122;28;20466;-79
2022/06/22 05:26:19;;;;;;;19.70;12.60;;;;;;;30.26;53.62;94549.09;5079564;28;20458;-79
2022/06/22 05:28:52;;;;;;;21.30;11.30;;;;;;;30.51;53.15;94546.56;5115374;28;20463;-79
2022/06/22 05:31:24;;;;;;;13.47;11.70;;;;;;;30.67;52.72;94550.22;5114854;28;20451;-79
2022/06/22 05:33:56;;;;;;;17.57;12.63;;;;;;;30.80;52.45;94541.59;5115052;28;20526;-79
2022/06/22 05:36:27;;;;;;;13.97;12.00;;;;;;;31.00;52.15;94545.47;5115037;28;20495;-79
2022/06/22 05:38:58;;;;;;;13.23;12.00;;;;;;;31.16;50.88;94535.47;5115374;28;20460;-79
2022/06/22 05:41:30;;;;;;;17.13;12.67;;;;;;;31.24;51.19;94526.88;5114980;27;20532;-79
2022/06/22 05:43:59;;;;;;;13.10;11.83;;;;;;;31.29;50.91;94527.69;5114955;28;20442;-79
2022/06/22 05:46:26;;;;;;;14.87;13.17;;;;;;;31.42;50.35;94520.94;5114886;28;20450;-79
2022/06/22 05:48:56;;;;;;;15.57;11.87;;;;;;;31.54;50.16;94520.69;5115254;28;20562;-79
2022/06/22 05:51:35;;;;;;;15.33;12.63;;;;;;;31.63;50.30;94525.31;5114938;28;20452;-80
2022/06/22 05:54:11;;;;;;;19.27;13.60;;;;;;;31.73;50.63;94538.09;5114742;28;20446;-79
2022/06/22 05:56:43;;;;;;;15.20;11.33;;;;;;;31.79;48.90;94545.13;5114595;28;20486;-79
2022/06/22 05:59:17;;;;;;;19.90;11.63;;;;;;;31.57;49.49;94550.81;5114532;28;20530;-79
2022/06/22 06:01:48;;;;;;;19.70;13.50;;;;;;;30.97;50.92;94560.38;5114432;28;20461;-79
2022/06/22 06:04:24;;;;;;;14.73;11.80;;;;;;;30.49;52.15;94548.72;5078676;28;20446;-79
2022/06/22 06:06:56;;;;;;;19.90;12.90;;;;;;;30.39;53.15;94537.84;5114537;28;20435;-79
2022/06/22 06:09:25;;;;;;;19.00;14.90;;;;;;;30.49;53.20;94537.06;5114129;28;20438;-79
2022/06/22 06:11:58;;;;;;;14.07;12.50;;;;;;;30.63;53.61;94540.94;5114068;28;20457;-79
2022/06/22 06:14:30;;;;;;;16.63;12.87;;;;;;;30.86;52.49;94528.06;5114258;28;20444;-79
2022/06/22 06:17:02;;;;;;;13.43;11.27;;;;;;;31.03;51.71;94525.97;5114091;28;20487;-80
2022/06/22 06:19:33;;;;;;;16.50;13.03;;;;;;;31.18;51.98;94534.16;5114596;28;20439;-81
2022/06/22 06:22:04;;;;;;;15.37;13.77;;;;;;;30.66;53.74;94535.03;5114377;28;20776;-78
2022/06/22 06:24:38;;;;;;;15.77;14.07;;;;;;;30.16;54.37;94544.44;5113349;28;20943;-78
2022/06/22 06:30:01;;;;;;;15.07;13.57;;;;;;;29.40;57.34;94543.72;5114147;28;20423;-78
2022/06/22 06:32:38;;;;;;;15.37;13.77;;;;;;;29.15;57.32;94538.88;5113834;28;20983;-78
2022/06/22 06:35:13;;;;;;;15.17;13.17;;;;;;;29.09;57.92;94533.66;5114178;28;20449;-79
2022/06/22 06:37:49;;;;;;;15.07;13.57;;;;;;;29.18;57.97;94534.84;5114099;28;20442;-78
2022/06/22 06:40:21;;;;;;;18.00;12.70;;;;;;;29.37;56.82;94532.63;5113887;28;20451;-78
2022/06/22 06:42:54;;;;;;;16.73;14.43;;;;;;;29.38;57.74;94531.53;5113542;28;20472;-78
2022/06/22 06:45:24;;;;;;;15.50;14.00;;;;;;;29.40;57.57;94524.81;5094767;28;20453;-78
2022/06/22 06:47:57;;;;;;;15.47;14.00;;;;;;;29.63;57.56;94528.28;5113946;28;20951;-78
2022/06/22 06:50:30;;;;;;;14.00;12.80;;;;;;;29.83;55.60;94528.47;5113737;28;20462;-78
2022/06/22 06:53:14;;;;;;;14.60;13.07;;;;;;;30.02;55.58;94516.16;5113886;28;20545;-78
2022/06/22 06:55:45;;;;;;;14.50;12.50;;;;;;;30.04;55.01;94522.16;5113837;28;20486;-78
2022/06/22 06:58:19;;;;;;;17.43;14.00;;;;;;;30.26;55.95;94521.22;5113634;28;20443;-79
2022/06/22 07:00:48;;;;;;;23.80;14.00;;;;;;;30.39;54.86;94515.34;5113527;28;20440;-78
2022/06/22 07:03:19;;;;;;;16.17;12.87;;;;;;;30.53;54.88;94511.09;5113559;28;20460;-78
2022/06/22 07:05:47;;;;;;;17.87;12.93;;;;;;;30.68;54.23;94503.06;5113688;28;20439;-79
2022/06/22 07:08:19;;;;;;;22.50;15.07;;;;;;;30.59;54.48;94503.78;5113260;28;20440;-80
2022/06/22 07:10:51;;;;;;;19.33;14.87;;;;;;;30.56;54.71;94521.38;5113472;28;20502;-78
2022/06/22 07:13:25;;;;;;;17.03;15.33;;;;;;;30.55;52.99;94508.94;5113388;28;20440;-79
2022/06/22 07:15:56;;;;;;;16.70;15.03;;;;;;;30.59;54.05;94507.31;5112988;28;20497;-79
2022/06/22 07:18:27;;;;;;;16.17;14.47;;;;;;;30.42;54.08;94496.69;5112918;28;20440;-78
2022/06/22 07:20:58;;;;;;;18.30;16.20;;;;;;;30.26;53.44;94499.56;5113456;28;20552;-78
2022/06/22 07:23:34;;;;;;;18.23;14.70;;;;;;;30.38;53.25;94509.13;5113262;28;20479;-78
2022/06/22 07:26:10;;;;;;;15.83;13.93;;;;;;;30.30;51.98;94492.53;5112823;28;20442;-79
2022/06/22 07:28:42;;;;;;;16.40;14.70;;;;;;;30.17;52.33;94502.78;5113197;28;20450;-78
2022/06/22 07:31:16;;;;;;;16.87;15.23;;;;;;;30.25;53.29;94506.88;5113238;28;20458;-78
2022/06/22 07:33:47;;;;;;;22.40;14.87;;;;;;;30.34;53.45;94496.34;5113131;28;20440;-78
2022/06/22 07:36:21;;;;;;;17.97;15.43;;;;;;;30.37;52.77;94493.16;5114539;28;20540;-78
2022/06/22 07:38:57;;;;;;;22.87;17.20;;;;;;;30.25;53.09;94503.34;5117132;28;20456;-78
2022/06/22 07:41:26;;;;;;;26.20;18.47;;;;;;;30.23;53.80;94491.97;5117605;28;20480;-78
2022/06/22 07:43:56;;;;;;;19.47;16.97;;;;;;;30.29;54.67;94501.75;5117450;28;20448;-78
2022/06/22 07:46:29;;;;;;;28.13;17.43;;;;;;;30.21;54.17;94490.34;5117529;28;20446;-78
2022/06/22 07:49:03;;;;;;;21.20;18.13;;;;;;;29.99;54.91;94491.50;5117000;28;20452;-79
2022/06/22 07:51:32;;;;;;;29.53;21.40;;;;;;;29.79;55.60;94494.91;5116965;28;20435;-78
2022/06/22 07:54:06;;;;;;;27.73;20.93;;;;;;;29.65;56.81;94493.69;5116900;28;20448;-80
2022/06/22 07:56:47;;;;;;;23.73;20.30;;;;;;;29.94;56.66;94511.22;5117073;28;20486;-78
2022/06/22 07:59:19;;;;;;;23.90;19.73;;;;;;;30.04;54.90;94496.97;5116923;28;20439;-78
2022/06/22 08:01:49;;;;;;;29.13;20.80;;;;;;;30.11;54.08;94505.72;5116792;28;20448;-79
2022/06/22 08:04:22;;;;;;;24.17;20.90;;;;;;;29.98;54.99;94511.53;5116643;28;20504;-78
2022/06/22 08:06:53;;;;;;;29.83;20.03;;;;;;;29.78;55.99;94506.78;5116844;28;20448;-79
2022/06/22 08:09:26;;;;;;;25.10;20.37;;;;;;;29.95;56.34;94509.34;5117190;28;20547;-79
2022/06/22 08:12:01;;;;;;;27.37;21.80;;;;;;;30.04;54.82;94513.22;5116599;28;20444;-78
2022/06/22 08:14:35;;;;;;;34.13;23.00;;;;;;;29.87;55.48;94530.41;5116623;28;20431;-79
2022/06/22 08:17:08;;;;;;;28.57;20.73;;;;;;;29.59;57.17;94517.19;5116884;28;20468;-79
2022/06/22 08:19:35;;;;;;;27.67;19.90;;;;;;;29.51;56.71;94512.25;5116516;28;20455;-79
2022/06/22 08:22:06;;;;;;;24.83;21.33;;;;;;;29.66;57.23;94512.38;5116763;28;20459;-79
2022/06/22 08:24:40;;;;;;;27.57;20.47;;;;;;;29.80;56.05;94502.75;5116510;28;20806;-79
2022/06/22 08:27:13;;;;;;;27.13;22.03;;;;;;;29.94;55.78;94494.19;5116350;28;20439;-79
2022/06/22 08:29:40;;;;;;;30.70;21.13;;;;;;;30.06;54.88;94498.34;5116774;28;20440;-79
2022/06/22 08:32:23;;;;;;;21.27;17.43;;;;;;;30.30;54.09;94496.06;5116146;28;20444;-79
2022/06/22 08:34:55;;;;;;;16.30;14.60;;;;;;;30.28;50.90;94497.41;5116418;28;20456;-79
2022/06/22 08:37:29;;;;;;;19.30;16.93;;;;;;;30.26;51.33;94504.97;5116048;28;20915;-79
2022/06/22 08:40:03;;;;;;;16.93;14.30;;;;;;;30.20;51.29;94502.25;5116003;28;20521;-79
2022/06/22 08:42:46;;;;;;;21.07;15.53;;;;;;;30.11;51.69;94492.19;5115709;28;20977;-80
2022/06/22 08:45:35;;;;;;;19.83;15.53;;;;;;;30.05;52.41;94487.78;5116121;28;20457;-80
2022/06/22 08:48:20;;;;;;;16.67;14.40;;;;;;;30.09;52.07;94505.97;5115739;28;20448;-79
2022/06/22 08:50:58;;;;;;;19.10;14.03;;;;;;;30.01;51.69;94498.28;5116389;28;20447;-79
2022/06/22 08:53:38;;;;;;;20.03;14.30;;;;;;;30.15;51.76;94502.22;5115963;28;20439;-78
2022/06/22 08:56:21;;;;;;;19.20;14.57;;;;;;;30.42;51.31;94501.28;5115491;28;20450;-78
2022/06/22 08:59:12;;;;;;;20.20;13.10;;;;;;;30.50;49.61;94495.38;5115869;28;20452;-79
2022/06/22 09:01:52;;;;;;;12.77;11.47;;;;;;;30.49;49.53;94491.84;5115676;28;20448;-79
2022/06/22 09:04:39;;;;;;;20.47;13.60;;;;;;;30.55;49.56;94479.13;5115703;28;20921;-78
2022/06/22 09:07:55;;;;;;;14.83;11.10;;;;;;;30.47;48.23;94485.06;5115738;28;20805;-79
2022/06/22 09:10:40;;;;;;;15.73;12.83;;;;;;;30.53;50.04;94486.72;5052660;28;20458;-78
2022/06/22 09:13:35;;;;;;;20.80;13.10;;;;;;;30.53;50.24;94487.53;5019593;28;20785;-78
2022/06/22 09:16:12;;;;;;;13.60;12.40;;;;;;;30.52;50.52;94472.34;4993340;28;20445;-78
2022/06/22 09:19:14;;;;;;;15.20;12.83;;;;;;;30.39;49.40;94472.84;4993582;28;20443;-79
2022/06/22 09:21:57;;;;;;;13.70;12.50;;;;;;;30.21;50.53;94476.81;4954390;29;20486;-78
2022/06/22 09:24:39;;;;;;;14.90;13.27;;;;;;;30.18;51.05;94466.50;4954471;29;20449;-78
2022/06/22 09:27:15;;;;;;;13.80;12.30;;;;;;;30.24;51.85;94477.34;4954501;29;20511;-78
2022/06/22 09:30:02;;;;;;;15.10;12.40;;;;;;;30.44;51.75;94463.94;4954374;29;20447;-78
2022/06/22 09:32:52;;;;;;;14.07;12.77;;;;;;;30.54;51.01;94458.53;4909839;29;20453;-78
2022/06/22 09:35:58;;;;;;;14.30;12.10;;;;;;;30.58;51.09;94461.53;4954317;29;20452;-79
2022/06/22 09:38:49;;;;;;;13.17;11.03;;;;;;;30.30;50.32;94455.44;4954346;29;20452;-78
2022/06/22 09:41:29;;;;;;;17.43;11.40;;;;;;;30.21;50.07;94452.44;4953605;28;20495;-79
2022/06/22 09:44:26;;;;;;;13.17;9.77;;;;;;;30.27;50.71;94447.84;4968846;28;20445;-78
2022/06/22 09:47:28;;;;;;;18.10;10.27;;;;;;;30.41;50.88;94448.22;5012549;28;20440;-79
2022/06/22 09:50:22;;;;;;;16.70;12.07;;;;;;;30.42;49.54;94444.44;5012331;28;20890;-79
2022/06/22 09:53:19;;;;;;;12.83;11.53;;;;;;;30.19;49.89;94441.06;5049495;28;20446;-78
2022/06/22 09:56:25;;;;;;;17.43;12.40;;;;;;;29.96;50.40;94456.84;5041922;28;20463;-78
2022/06/22 10:02:22;;;;;;;18.20;12.07;;;;;;;29.63;51.22;94457.97;4940255;28;20438;-78
2022/06/22 10:05:24;;;;;;;13.73;11.23;;;;;;;29.66;51.73;94452.03;4972938;28;20478;-79
2022/06/22 10:08:03;;;;;;;15.80;11.93;;;;;;;29.63;52.05;94461.50;4972889;28;20453;-79
2022/06/22 10:10:44;;;;;;;12.57;10.90;;;;;;;29.62;51.77;94470.69;4972794;28;20442;-78
2022/06/22 10:13:41;;;;;;;17.10;11.30;;;;;;;29.64;51.72;94470.44;4973051;28;20524;-79
2022/06/22 10:16:25;;;;;;;14.57;10.33;;;;;;;29.66;50.68;94487.22;4972756;28;20446;-78
2022/06/22 10:19:22;;;;;;;13.53;9.80;;;;;;;29.67;51.00;94467.19;4972786;28;20988;-78
2022/06/22 10:22:04;;;;;;;14.17;10.10;;;;;;;29.64;52.33;94470.44;4924899;28;20534;-79
2022/06/22 10:24:52;;;;;;;18.87;11.10;;;;;;;29.69;53.26;94478.56;4972376;28;20525;-79
2022/06/22 10:27:38;;;;;;;14.07;11.63;;;;;;;29.67;52.26;94478.03;4972297;28;21073;-78
2022/06/22 10:30:24;;;;;;;13.93;11.30;;;;;;;29.72;53.12;94478.06;4972561;28;20455;-79
2022/06/22 10:33:21;;;;;;;15.27;11.30;;;;;;;29.88;54.10;94477.91;4954597;28;20476;-79
2022/06/22 10:36:24;;;;;;;13.83;12.40;;;;;;;29.79;53.75;94468.66;5031375;28;20951;-79
2022/06/22 10:39:06;;;;;;;22.03;11.30;;;;;;;29.76;53.78;94479.16;5074312;28;20443;-78
2022/06/22 10:48:10;;;;;;;20.93;12.83;;;;;;;29.18;55.10;94472.69;5113703;28;20436;-79
2022/06/22 10:50:48;;;;;;;18.10;11.57;;;;;;;29.26;56.16;94474.94;5113667;28;20447;-79
2022/06/22 10:54:01;;;;;;;20.03;12.40;;;;;;;29.14;54.66;94472.38;5113916;28;20443;-80
2022/06/22 10:57:05;;;;;;;17.33;12.00;;;;;;;29.25;55.01;94473.31;5113281;28;20481;-79
2022/06/22 11:00:04;;;;;;;14.90;13.13;;;;;;;29.44;54.42;94458.34;5113600;28;20526;-79
2022/06/22 11:03:16;;;;;;;15.03;12.33;;;;;;;29.44;52.88;94454.81;5050405;28;20439;-78
2022/06/22 11:06:03;;;;;;;16.63;11.00;;;;;;;29.51;54.03;94455.47;5050511;28;20489;-79
2022/06/22 11:08:54;;;;;;;12.90;11.70;;;;;;;29.58;53.90;94462.28;5050703;28;20500;-78
2022/06/22 11:11:35;;;;;;;26.80;10.97;;;;;;;29.65;53.82;94463.94;5050368;28;20799;-79
2022/06/22 11:14:35;;;;;;;13.40;11.63;;;;;;;29.73;54.83;94458.03;5050213;28;20932;-79
2022/06/22 11:17:19;;;;;;;17.20;12.33;;;;;;;29.79;54.32;94457.03;4971760;28;20890;-78
2022/06/22 11:20:19;;;;;;;22.10;11.53;;;;;;;29.83;54.62;94458.13;4971745;28;20932;-78
2022/06/22 11:22:49;;;;;;;18.13;12.27;;;;;;;29.87;53.80;94459.25;4971694;28;20436;-79
2022/06/22 11:31:47;;;;;;;12.93;10.87;;;;;;;29.97;56.17;94461.19;4971732;28;20474;-79
2022/06/22 11:34:46;;;;;;;19.03;12.07;;;;;;;29.69;57.21;94463.16;4971373;28;20444;-79
2022/06/22 11:37:24;;;;;;;17.00;11.90;;;;;;;29.59;56.30;94458.50;4971528;28;20485;-79
2022/06/22 11:40:22;;;;;;;14.27;11.97;;;;;;;29.38;56.13;94458.53;4991171;28;20461;-80
2022/06/22 11:42:59;;;;;;;13.63;11.37;;;;;;;29.13;57.50;94453.72;5033443;28;20472;-79
2022/06/22 11:45:54;;;;;;;14.73;11.90;;;;;;;28.95;58.47;94463.03;5050288;28;20433;-79
2022/06/22 11:48:41;;;;;;;15.10;12.20;;;;;;;28.89;59.87;94464.81;5050195;28;20442;-79
2022/06/22 11:51:21;;;;;;;17.80;11.93;;;;;;;28.92;58.61;94468.94;5050253;28;21034;-78
2022/06/22 11:54:07;;;;;;;14.03;12.30;;;;;;;28.94;59.04;94470.31;5069568;28;20518;-78
2022/06/22 11:56:49;;;;;;;13.77;12.27;;;;;;;29.02;58.37;94452.00;5112748;28;20447;-78
2022/06/22 11:59:31;;;;;;;15.57;11.53;;;;;;;29.11;56.99;94458.56;5112751;28;20436;-79
2022/06/22 12:02:14;;;;;;;16.53;12.10;;;;;;;29.20;57.03;94465.13;5112998;28;20440;-78
2022/06/22 12:05:19;;;;;;;16.67;11.80;;;;;;;29.35;55.52;94462.59;5112677;28;20451;-78
2022/06/22 12:08:34;;;;;;;14.17;11.57;;;;;;;29.43;53.37;94459.41;5112649;28;20870;-78
2022/06/22 12:11:14;;;;;;;13.13;11.77;;;;;;;29.37;53.54;94470.44;5050196;28;20449;-78
2022/06/22 12:17:02;;;;;;;14.40;11.93;;;;;;;29.40;53.85;94470.72;5010159;28;20450;-79
2022/06/22 12:19:40;;;;;;;15.63;12.10;;;;;;;29.43;51.76;94455.88;4965011;28;20443;-79
2022/06/22 12:22:17;;;;;;;21.53;12.93;;;;;;;29.33;53.43;94463.91;5011480;28;20443;-78
2022/06/22 12:24:59;;;;;;;22.20;13.20;;;;;;;29.37;53.47;94465.03;5013965;28;20574;-81
2022/06/22 12:27:32;;;;;;;13.63;10.47;;;;;;;29.39;52.55;94462.88;5013902;28;20451;-79
2022/06/22 12:30:17;;;;;;;15.63;12.00;;;;;;;29.45;52.90;94462.69;5013608;28;20483;-78
2022/06/22 12:32:51;;;;;;;15.83;12.57;;;;;;;29.52;52.83;94474.13;5013615;28;20447;-79